createdAt,value
2022-11-18T00:01:05.281Z,8.50
2022-11-18T00:03:31.635Z,7.00
2022-11-18T00:05:58.152Z,8.00
2022-11-18T00:08:24.480Z,9.00
2022-11-18T00:10:50.933Z,8.00
2022-11-18T00:13:17.308Z,10.00
2022-11-18T00:15:43.675Z,8.00
2022-11-18T00:18:10.114Z,6.00
2022-11-18T00:20:36.458Z,7.33
2022-11-18T00:23:02.797Z,6.00
2022-11-18T00:25:29.139Z,7.33
2022-11-18T00:27:55.495Z,7.33
2022-11-18T00:30:21.845Z,6.00
2022-11-18T00:32:48.332Z,7.33
2022-11-18T00:35:14.760Z,5.33
2022-11-18T00:37:41.098Z,9.00
2022-11-18T00:40:07.457Z,9.00
2022-11-18T00:42:33.792Z,7.00
2022-11-18T00:45:00.175Z,8.33
2022-11-18T00:47:26.560Z,6.00
2022-11-18T00:49:52.886Z,6.00
2022-11-18T00:52:19.221Z,5.67
2022-11-18T00:54:45.577Z,7.33
2022-11-18T00:57:12.782Z,5.75
2022-11-18T00:59:39.143Z,6.33
2022-11-18T01:02:05.490Z,5.00
2022-11-18T01:04:31.888Z,6.00
2022-11-18T01:06:58.295Z,8.67
2022-11-18T01:09:24.662Z,6.33
2022-11-18T01:11:51.048Z,7.00
2022-11-18T01:14:17.398Z,6.00
2022-11-18T01:16:43.752Z,7.33
2022-11-18T01:19:10.205Z,6.00
2022-11-18T01:21:36.552Z,6.00
2022-11-18T01:24:02.908Z,6.00
2022-11-18T01:26:29.239Z,6.00
2022-11-18T01:28:55.593Z,6.00
2022-11-18T01:31:22.044Z,5.33
2022-11-18T01:33:48.378Z,6.00
2022-11-18T01:36:14.880Z,6.00
2022-11-18T01:38:42.134Z,9.00
2022-11-18T01:41:08.470Z,6.00
2022-11-18T01:43:34.816Z,8.33
2022-11-18T01:46:01.178Z,6.00
2022-11-18T01:48:27.563Z,5.33
2022-11-18T01:50:53.928Z,3.33
2022-11-18T01:53:20.262Z,6.00
2022-11-18T01:55:46.630Z,5.00
2022-11-18T01:58:12.979Z,5.00
2022-11-18T02:00:39.400Z,5.33
2022-11-18T02:03:05.757Z,6.00
2022-11-18T02:05:32.109Z,4.00
2022-11-18T02:07:58.398Z,5.67
2022-11-18T02:10:24.757Z,4.00
2022-11-18T02:12:51.098Z,5.33
2022-11-18T02:15:18.319Z,5.00
2022-11-18T02:17:44.715Z,4.67
2022-11-18T02:20:11.065Z,6.00
2022-11-18T02:22:37.409Z,5.67
2022-11-18T02:25:03.791Z,5.33
2022-11-18T02:27:30.160Z,5.00
2022-11-18T02:29:56.479Z,5.00
2022-11-18T02:32:22.797Z,5.00
2022-11-18T02:34:49.184Z,4.33
2022-11-18T02:37:15.519Z,5.00
2022-11-18T02:39:41.876Z,6.00
2022-11-18T02:42:08.213Z,5.67
2022-11-18T02:44:34.567Z,5.00
2022-11-18T02:47:00.907Z,5.67
2022-11-18T02:49:27.602Z,4.00
2022-11-18T02:51:53.976Z,4.33
2022-11-18T02:54:20.340Z,6.00
2022-11-18T02:56:46.694Z,5.67
2022-11-18T02:59:13.074Z,5.00
2022-11-18T03:01:39.524Z,4.00
2022-11-18T03:04:05.867Z,4.00
2022-11-18T03:06:32.189Z,5.00
2022-11-18T03:08:58.609Z,4.67
2022-11-18T03:11:24.958Z,4.00
2022-11-18T03:13:51.333Z,4.67
2022-11-18T03:16:18.561Z,7.00
2022-11-18T03:18:44.922Z,4.00
2022-11-18T03:21:11.317Z,5.00
2022-11-18T03:23:37.661Z,5.00
2022-11-18T03:26:04.018Z,4.00
2022-11-18T03:28:30.415Z,4.00
2022-11-18T03:30:56.848Z,4.33
2022-11-18T03:33:23.166Z,4.33
2022-11-18T03:35:49.484Z,5.00
2022-11-18T03:38:15.819Z,4.67
2022-11-18T03:40:42.168Z,4.33
2022-11-18T03:43:08.543Z,6.00
2022-11-18T03:45:34.854Z,6.00
2022-11-18T03:48:01.183Z,4.33
2022-11-18T03:50:27.527Z,4.67
2022-11-18T03:52:53.865Z,5.00
2022-11-18T03:55:20.194Z,5.00
2022-11-18T03:57:46.568Z,5.00
2022-11-18T04:00:12.937Z,5.00
2022-11-18T04:02:39.301Z,5.00
2022-11-18T04:05:05.707Z,4.00
2022-11-18T04:07:32.172Z,5.00
2022-11-18T04:09:58.637Z,4.00
2022-11-18T04:12:25.031Z,3.00
2022-11-18T04:14:51.395Z,6.00
2022-11-18T04:17:18.604Z,4.00
2022-11-18T04:19:44.944Z,3.67
2022-11-18T04:22:12.148Z,4.00
2022-11-18T04:24:38.485Z,4.00
2022-11-18T04:27:04.834Z,4.00
2022-11-18T04:29:31.200Z,4.00
2022-11-18T04:31:57.557Z,4.00
2022-11-18T04:34:23.944Z,6.00
2022-11-18T04:36:50.286Z,4.67
2022-11-18T04:39:17.678Z,5.00
2022-11-18T04:41:44.249Z,5.00
2022-11-18T04:44:10.626Z,4.00
2022-11-18T04:46:36.973Z,4.00
2022-11-18T04:49:03.340Z,4.00
2022-11-18T04:51:29.655Z,3.33
2022-11-18T04:53:56.005Z,4.00
2022-11-18T04:56:22.356Z,4.00
2022-11-18T04:58:48.727Z,4.00
2022-11-18T05:01:15.993Z,4.00
2022-11-18T05:03:45.143Z,4.00
2022-11-18T05:06:16.496Z,6.25
2022-11-18T05:08:42.813Z,5.67
2022-11-18T05:11:09.161Z,8.00
2022-11-18T05:13:35.491Z,5.00
2022-11-18T05:16:01.839Z,8.33
2022-11-18T05:18:28.164Z,6.00
2022-11-18T05:20:54.546Z,7.33
2022-11-18T05:23:20.902Z,6.33
2022-11-18T05:25:47.263Z,6.00
2022-11-18T05:28:13.640Z,7.67
2022-11-18T05:30:40.079Z,6.00
2022-11-18T05:33:06.434Z,7.33
2022-11-18T05:35:32.775Z,7.67
2022-11-18T05:37:59.129Z,7.67
2022-11-18T05:40:25.482Z,7.67
2022-11-18T05:42:51.834Z,7.00
2022-11-18T05:45:18.180Z,5.00
2022-11-18T05:47:44.524Z,6.00
2022-11-18T05:50:10.887Z,5.33
2022-11-18T05:52:37.284Z,5.33
2022-11-18T05:55:03.644Z,5.00
2022-11-18T05:57:29.975Z,4.00
2022-11-18T05:59:56.332Z,4.00
2022-11-18T06:02:22.712Z,7.67
2022-11-18T06:04:49.133Z,5.00
2022-11-18T06:07:15.571Z,6.00
2022-11-18T06:09:41.951Z,7.00
2022-11-18T06:12:08.301Z,8.00
2022-11-18T06:14:34.686Z,6.00
2022-11-18T06:17:01.100Z,7.00
2022-11-18T06:19:27.448Z,6.33
2022-11-18T06:21:53.797Z,5.67
2022-11-18T06:24:21.036Z,4.00
2022-11-18T06:26:47.364Z,5.00
2022-11-18T06:29:13.734Z,6.00
2022-11-18T06:31:40.083Z,4.00
2022-11-18T06:34:06.562Z,4.00
2022-11-18T06:36:32.902Z,4.00
2022-11-18T06:38:59.232Z,3.33
2022-11-18T06:41:28.346Z,2.67
2022-11-18T06:43:54.679Z,3.00
2022-11-18T06:46:21.042Z,4.00
2022-11-18T06:48:47.391Z,3.00
2022-11-18T06:51:13.752Z,3.67
2022-11-18T06:53:40.105Z,3.33
2022-11-18T06:56:06.532Z,4.00
2022-11-18T06:58:32.913Z,4.33
2022-11-18T07:00:59.363Z,4.00
2022-11-18T07:03:25.744Z,4.33
2022-11-18T07:05:52.291Z,3.00
2022-11-18T07:08:18.674Z,4.00
2022-11-18T07:10:45.066Z,5.00
2022-11-18T07:13:11.436Z,4.67
2022-11-18T07:15:37.791Z,5.00
2022-11-18T07:18:04.157Z,5.00
2022-11-18T07:20:30.571Z,3.00
2022-11-18T07:22:57.146Z,5.00
2022-11-18T07:25:23.676Z,4.67
2022-11-18T07:27:50.257Z,3.67
2022-11-18T07:30:16.826Z,2.00
2022-11-18T07:32:43.187Z,3.00
2022-11-18T07:35:10.408Z,5.50
2022-11-18T07:37:36.867Z,6.67
2022-11-18T07:40:03.225Z,9.33
2022-11-18T07:42:29.570Z,6.33
2022-11-18T07:44:55.922Z,8.33
2022-11-18T07:47:22.259Z,6.33
2022-11-18T07:49:48.608Z,5.00
2022-11-18T07:52:15.002Z,4.33
2022-11-18T07:54:41.346Z,4.67
2022-11-18T07:57:07.743Z,4.33
2022-11-18T07:59:34.125Z,3.00
2022-11-18T08:02:00.651Z,3.67
2022-11-18T08:04:27.066Z,3.00
2022-11-18T08:06:53.409Z,3.67
2022-11-18T08:09:20.041Z,4.00
2022-11-18T08:11:46.548Z,3.33
2022-11-18T08:14:12.942Z,4.00
2022-11-18T08:16:39.308Z,5.00
2022-11-18T08:19:05.700Z,2.33
2022-11-18T08:21:32.033Z,3.33
2022-11-18T08:24:01.153Z,2.67
2022-11-18T08:26:27.530Z,4.00
2022-11-18T08:28:54.025Z,4.67
2022-11-18T08:31:20.412Z,3.33
2022-11-18T08:33:46.773Z,4.00
2022-11-18T08:36:13.197Z,4.33
2022-11-18T08:38:39.528Z,5.67
2022-11-18T08:41:05.882Z,5.67
2022-11-18T08:43:32.246Z,4.33
2022-11-18T08:45:58.580Z,5.00
2022-11-18T08:48:25.001Z,6.00
2022-11-18T08:50:51.337Z,8.00
2022-11-18T08:53:17.707Z,7.33
2022-11-18T08:55:44.082Z,6.00
2022-11-18T08:58:10.417Z,6.00
2022-11-18T09:00:36.750Z,6.00
2022-11-18T09:03:03.135Z,7.33
2022-11-18T09:05:29.457Z,7.33
2022-11-18T09:07:55.874Z,8.00
2022-11-18T09:10:22.217Z,7.00
2022-11-18T09:12:48.569Z,8.00
2022-11-18T09:15:15.471Z,6.00
2022-11-18T09:17:41.911Z,4.67
2022-11-18T09:20:09.163Z,9.50
2022-11-18T09:22:35.593Z,9.67
2022-11-18T09:25:02.027Z,7.00
2022-11-18T09:27:28.376Z,9.00
2022-11-18T09:29:54.743Z,8.33
2022-11-18T09:32:21.980Z,7.00
2022-11-18T09:34:48.403Z,10.00
2022-11-18T09:37:14.829Z,7.67
2022-11-18T09:39:41.187Z,7.33
2022-11-18T09:42:07.569Z,8.33
2022-11-18T09:44:34.000Z,8.33
2022-11-18T09:47:00.348Z,7.00
2022-11-18T09:49:26.703Z,9.33
2022-11-18T09:51:53.452Z,5.00
2022-11-18T09:54:20.216Z,4.00
2022-11-18T09:56:46.768Z,5.67
2022-11-18T09:59:13.143Z,6.00
2022-11-18T10:01:39.559Z,7.33
2022-11-18T10:04:05.959Z,7.00
2022-11-18T10:06:32.384Z,5.67
2022-11-18T10:08:58.695Z,4.00
2022-11-18T10:11:25.063Z,5.00
2022-11-18T10:13:52.421Z,42.00
2022-11-18T10:16:18.783Z,6.00
2022-11-18T10:18:59.825Z,6.00
2022-11-18T10:21:26.868Z,4.67
2022-11-18T10:23:56.128Z,13.17
2022-11-18T10:26:23.468Z,12.67
2022-11-18T10:28:50.049Z,7.33
2022-11-18T10:31:17.274Z,6.00
2022-11-18T10:33:43.612Z,6.00
2022-11-18T10:39:03.793Z,5.33
2022-11-18T10:41:30.125Z,4.00
2022-11-18T10:43:56.461Z,3.33
2022-11-18T10:46:22.891Z,7.00
2022-11-18T10:48:49.254Z,9.00
2022-11-18T10:53:59.350Z,4.00
2022-11-18T10:56:25.684Z,6.67
2022-11-18T10:58:52.056Z,5.33
2022-11-18T11:01:18.488Z,5.00
2022-11-18T11:03:44.857Z,5.00
2022-11-18T11:09:05.301Z,3.00
2022-11-18T11:11:31.764Z,5.00
2022-11-18T11:13:58.155Z,4.33
2022-11-18T11:16:26.417Z,6.67
2022-11-18T11:18:53.141Z,20.50
2022-11-18T11:24:14.715Z,37.50
2022-11-18T11:29:28.764Z,36.00
2022-11-18T11:31:55.297Z,35.50
2022-11-18T11:34:21.757Z,38.50
2022-11-18T11:39:32.209Z,32.50
2022-11-18T11:41:58.673Z,31.00
2022-11-18T11:44:25.156Z,27.00
2022-11-18T11:46:52.564Z,30.33
2022-11-18T11:49:20.303Z,23.00
2022-11-18T11:54:31.249Z,33.00
2022-11-18T11:56:58.612Z,30.33
2022-11-18T11:59:26.064Z,40.33
2022-11-18T12:01:52.527Z,28.50
2022-11-18T12:04:19.171Z,27.50
2022-11-18T12:09:30.495Z,22.50
2022-11-18T12:11:57.002Z,21.50
2022-11-18T12:14:23.474Z,26.50
2022-11-18T12:16:49.899Z,18.00
2022-11-18T12:19:16.883Z,17.00
2022-11-18T12:21:43.645Z,16.50
2022-11-18T12:24:12.220Z,12.60
2022-11-18T12:26:38.656Z,13.00
2022-11-18T12:29:06.950Z,15.20
2022-11-18T12:31:33.415Z,14.00
2022-11-18T12:33:59.830Z,10.00
2022-11-18T12:36:26.218Z,11.00
2022-11-18T12:38:52.551Z,8.00
2022-11-18T12:41:18.916Z,9.00
2022-11-18T12:43:45.270Z,8.33
2022-11-18T12:46:12.489Z,7.25
2022-11-18T12:48:38.830Z,7.00
2022-11-18T12:51:05.199Z,7.67
2022-11-18T12:53:31.527Z,8.00
2022-11-18T12:55:57.844Z,6.67
2022-11-18T12:58:24.217Z,5.33
2022-11-18T13:00:50.582Z,7.00
2022-11-18T13:03:17.006Z,9.67
2022-11-18T13:05:43.337Z,5.33
2022-11-18T13:08:09.805Z,6.33
2022-11-18T13:10:36.102Z,8.33
2022-11-18T13:13:02.473Z,6.00
2022-11-18T13:15:28.838Z,7.67
2022-11-18T13:17:55.205Z,7.00
2022-11-18T13:20:21.544Z,6.33
2022-11-18T13:22:47.870Z,7.00
2022-11-18T13:25:15.092Z,6.50
2022-11-18T13:27:41.419Z,6.67
2022-11-18T13:30:07.764Z,7.67
2022-11-18T13:32:34.091Z,8.00
2022-11-18T13:35:00.460Z,6.67
2022-11-18T13:37:26.800Z,7.00
2022-11-18T13:42:47.008Z,7.00
2022-11-18T13:45:13.398Z,7.00
2022-11-18T13:47:39.742Z,7.00
2022-11-18T13:50:06.130Z,8.00
2022-11-18T13:52:32.452Z,7.00
2022-11-18T13:57:42.842Z,6.33
2022-11-18T14:00:09.246Z,7.00
2022-11-18T14:02:35.664Z,8.00
2022-11-18T14:05:02.017Z,5.00
2022-11-18T14:07:28.498Z,9.00
2022-11-18T14:12:38.668Z,7.67
2022-11-18T14:15:05.007Z,6.00
2022-11-18T14:17:31.333Z,8.00
2022-11-18T14:19:57.653Z,7.00
2022-11-18T14:22:24.106Z,7.67
2022-11-18T14:27:34.644Z,9.00
2022-11-18T14:30:01.010Z,8.67
2022-11-18T14:32:27.417Z,8.33
2022-11-18T14:34:53.780Z,8.00
2022-11-18T14:37:20.173Z,11.00
2022-11-18T14:42:40.388Z,10.33
2022-11-18T14:45:07.615Z,10.00
2022-11-18T14:47:34.009Z,10.00
2022-11-18T14:50:01.276Z,10.00
2022-11-18T14:52:30.580Z,13.17
2022-11-18T14:57:51.852Z,11.75
2022-11-18T15:00:18.396Z,11.50
2022-11-18T15:02:44.861Z,10.50
2022-11-18T15:05:11.295Z,10.50
2022-11-18T15:07:38.035Z,9.67
2022-11-18T15:12:49.486Z,10.00
2022-11-18T15:15:17.781Z,13.20
2022-11-18T15:17:44.211Z,10.00
2022-11-18T15:20:10.741Z,11.50
2022-11-18T15:22:39.898Z,11.00
2022-11-18T15:28:01.213Z,10.00
2022-11-18T15:30:27.633Z,12.00
2022-11-18T15:32:54.128Z,13.00
2022-11-18T15:35:20.560Z,14.00
2022-11-18T15:37:47.826Z,12.00
2022-11-18T15:42:58.091Z,12.00
2022-11-18T15:45:24.545Z,14.00
2022-11-18T15:47:51.813Z,10.67
2022-11-18T15:50:18.297Z,11.00
2022-11-18T15:52:44.815Z,9.00
2022-11-18T15:55:11.279Z,10.00
2022-11-18T15:57:38.471Z,8.50
2022-11-18T16:00:04.915Z,7.00
2022-11-18T16:02:31.290Z,8.33
2022-11-18T16:04:57.654Z,8.00
2022-11-18T16:07:24.014Z,6.00
2022-11-18T16:09:50.449Z,8.67
2022-11-18T16:12:16.791Z,5.67
2022-11-18T16:14:43.131Z,5.00
2022-11-18T16:17:10.355Z,7.25
2022-11-18T16:19:36.709Z,7.67
2022-11-18T16:22:03.033Z,5.67
2022-11-18T16:24:29.373Z,6.33
2022-11-18T16:26:55.720Z,9.67
2022-11-18T16:29:22.289Z,9.67
2022-11-18T16:31:49.041Z,8.00
2022-11-18T16:34:16.249Z,6.00
2022-11-18T16:36:42.650Z,6.00
2022-11-18T16:39:10.131Z,8.00
2022-11-18T16:41:36.906Z,6.67
2022-11-18T16:44:03.258Z,7.33
2022-11-18T16:46:29.655Z,8.33
2022-11-18T16:48:55.984Z,7.00
2022-11-18T16:51:22.324Z,8.00
2022-11-18T16:53:48.674Z,7.00
2022-11-18T16:56:15.162Z,6.33
2022-11-18T16:58:41.502Z,8.00
2022-11-18T17:01:19.657Z,7.00
2022-11-18T17:03:47.473Z,7.33
2022-11-18T17:06:13.825Z,6.00
2022-11-18T17:08:40.476Z,7.00
2022-11-18T17:11:06.821Z,5.67
2022-11-18T17:16:17.248Z,7.00
2022-11-18T17:18:43.596Z,5.00
2022-11-18T17:21:10.080Z,6.00
2022-11-18T17:23:36.400Z,4.00
2022-11-18T17:26:02.771Z,5.00
2022-11-18T17:31:22.746Z,7.00
2022-11-18T17:33:49.152Z,4.67
2022-11-18T17:36:15.501Z,7.00
2022-11-18T17:38:41.828Z,6.00
2022-11-18T17:41:08.196Z,6.67
2022-11-18T17:46:18.783Z,8.33
2022-11-18T17:48:45.150Z,5.00
2022-11-18T17:51:12.520Z,6.75
2022-11-18T17:53:43.364Z,9.25
2022-11-18T17:56:10.008Z,8.00
2022-11-18T18:01:30.233Z,8.67
2022-11-18T18:03:56.687Z,7.00
2022-11-18T18:06:22.998Z,7.33
2022-11-18T18:08:50.196Z,9.75
2022-11-18T18:11:16.564Z,7.33
2022-11-18T18:16:36.891Z,8.00
2022-11-18T18:19:03.389Z,6.67
2022-11-18T18:21:29.721Z,8.00
2022-11-18T18:23:56.069Z,8.00
2022-11-18T18:26:26.608Z,7.67
2022-11-18T18:31:40.193Z,8.00
2022-11-18T18:34:06.577Z,8.00
2022-11-18T18:36:32.937Z,8.00
2022-11-18T18:38:59.316Z,8.33
2022-11-18T18:41:25.754Z,8.00
2022-11-18T18:46:36.080Z,8.33
2022-11-18T18:49:02.448Z,6.67
2022-11-18T18:51:28.823Z,8.00
2022-11-18T18:53:55.187Z,7.67
2022-11-18T18:56:21.668Z,9.00
2022-11-18T19:01:44.850Z,7.50
2022-11-18T19:04:12.088Z,8.25
2022-11-18T19:06:59.492Z,6.00
2022-11-18T19:09:24.808Z,9.00
2022-11-18T19:11:51.399Z,7.00
2022-11-18T19:17:08.157Z,6.00
2022-11-18T19:19:36.795Z,6.00
2022-11-18T19:22:03.113Z,5.33
2022-11-18T19:24:48.598Z,4.00
2022-11-18T19:27:15.924Z,6.33
2022-11-18T19:32:26.101Z,6.00
2022-11-18T19:34:52.425Z,5.00
2022-11-18T19:37:19.008Z,5.33
2022-11-18T19:39:45.352Z,6.00
2022-11-18T19:42:11.821Z,6.00
2022-11-18T19:47:32.104Z,5.00
2022-11-18T19:49:58.464Z,4.33
2022-11-18T19:52:24.807Z,4.67
2022-11-18T19:54:51.168Z,5.00
2022-11-18T19:57:17.565Z,5.00
2022-11-18T20:02:28.299Z,5.00
2022-11-18T20:04:54.636Z,8.00
2022-11-18T20:07:21.041Z,6.00
2022-11-18T20:09:47.388Z,4.33
2022-11-18T20:12:14.032Z,3.00
2022-11-18T20:17:24.361Z,4.33
2022-11-18T20:19:50.717Z,4.67
2022-11-18T20:22:17.104Z,3.67
2022-11-18T20:24:43.471Z,3.00
2022-11-18T20:27:09.799Z,4.33
2022-11-18T20:32:30.067Z,5.00
2022-11-18T20:34:59.367Z,2.50
2022-11-18T20:37:28.088Z,1.33
2022-11-18T20:39:54.680Z,2.33
2022-11-18T20:42:21.044Z,1.33
2022-11-18T20:47:31.237Z,1.00
2022-11-18T20:49:57.564Z,1.33
2022-11-18T20:52:23.902Z,1.00
2022-11-18T20:54:50.264Z,1.33
2022-11-18T20:57:16.658Z,1.33
2022-11-18T20:59:43.059Z,1.33
2022-11-18T21:02:09.378Z,0.33
2022-11-18T21:04:38.485Z,0.67
2022-11-18T21:07:04.938Z,2.00
2022-11-18T21:09:34.096Z,0.17
2022-11-18T21:12:03.232Z,0.50
2022-11-18T21:14:29.548Z,0.00
2022-11-18T21:16:58.711Z,0.50
2022-11-18T21:19:27.844Z,0.00
2022-11-18T21:21:54.212Z,0.00
2022-11-18T21:24:20.672Z,0.00
2022-11-18T21:26:49.855Z,0.50
2022-11-18T21:29:19.259Z,1.00
2022-11-18T21:31:48.707Z,0.67
2022-11-18T21:34:15.123Z,1.00
2022-11-18T21:36:47.018Z,0.50
2022-11-18T21:39:17.864Z,9.50
2022-11-18T21:41:46.781Z,18.67
2022-11-18T21:44:16.780Z,15.67
2022-11-18T21:46:43.353Z,9.00
2022-11-18T21:49:10.536Z,9.50
2022-11-18T21:51:36.871Z,6.67
2022-11-18T21:54:03.257Z,7.00
2022-11-18T21:56:29.575Z,4.33
2022-11-18T21:58:55.886Z,6.00
2022-11-18T22:01:22.260Z,3.67
2022-11-18T22:03:53.714Z,5.67
2022-11-18T22:06:21.516Z,4.00
2022-11-18T22:08:48.032Z,4.00
2022-11-18T22:11:14.386Z,5.00
2022-11-18T22:13:40.737Z,4.33
2022-11-18T22:16:07.093Z,3.67
2022-11-18T22:21:27.381Z,4.00
2022-11-18T22:23:53.750Z,2.67
2022-11-18T22:26:20.091Z,4.00
2022-11-18T22:28:46.423Z,2.00
2022-11-18T22:31:12.790Z,2.67
2022-11-18T22:36:22.938Z,2.67
2022-11-18T22:38:49.244Z,2.33
2022-11-18T22:41:15.572Z,2.33
2022-11-18T22:43:41.952Z,2.67
2022-11-18T22:46:08.275Z,1.33
2022-11-18T22:51:18.632Z,3.00
2022-11-18T22:53:44.957Z,1.33
2022-11-18T22:56:11.317Z,3.00
2022-11-18T22:58:38.611Z,20.67
2022-11-18T23:01:04.990Z,9.67
2022-11-18T23:06:26.373Z,14.00
2022-11-18T23:08:53.669Z,10.25
2022-11-18T23:11:20.856Z,8.25
2022-11-18T23:13:47.179Z,6.67
2022-11-18T23:16:13.559Z,6.00
2022-11-18T23:21:24.882Z,5.00
2022-11-18T23:23:51.214Z,4.00
2022-11-18T23:26:18.396Z,4.25
2022-11-18T23:28:44.782Z,4.67
2022-11-18T23:31:11.090Z,4.33
2022-11-18T23:36:31.142Z,3.00
2022-11-18T23:39:00.304Z,2.33
2022-11-18T23:41:26.634Z,3.33
2022-11-18T23:43:52.926Z,3.00
2022-11-18T23:46:19.255Z,3.00
2022-11-18T23:51:29.764Z,2.67
2022-11-18T23:53:56.085Z,4.00
2022-11-18T23:56:22.413Z,2.00
2022-11-18T23:58:48.764Z,2.00
